createdAt,value
2022-12-08T00:03:13.008Z,3.2
2022-12-08T00:13:13.647Z,3.3
2022-12-08T00:23:14.592Z,3.3
2022-12-08T00:33:14.831Z,3.3
2022-12-08T00:43:15.670Z,3.4
2022-12-08T00:53:16.292Z,3.4
2022-12-08T01:03:16.830Z,3.4
2022-12-08T01:13:16.786Z,3.4
2022-12-08T01:23:17.281Z,3.3
2022-12-08T01:33:17.960Z,3.3
2022-12-08T01:43:18.683Z,3.3
2022-12-08T01:53:19.626Z,3.2
2022-12-08T02:03:20.164Z,3.3
2022-12-08T02:13:20.459Z,3.3
2022-12-08T02:23:20.966Z,3.3
2022-12-08T02:33:21.961Z,3.3
2022-12-08T02:43:22.455Z,3.3
2022-12-08T02:53:22.610Z,3.3
2022-12-08T03:03:23.466Z,3.3
2022-12-08T03:13:24.388Z,3.3
2022-12-08T03:23:25.223Z,3.3
2022-12-08T03:33:26.082Z,3.3
2022-12-08T03:53:28.036Z,3.4
2022-12-08T04:03:28.700Z,3.4
2022-12-08T04:13:28.760Z,3.4
2022-12-08T04:23:29.465Z,3.4
2022-12-08T04:33:29.818Z,3.4
2022-12-08T04:43:30.373Z,3.3
2022-12-08T04:53:30.960Z,3.3
2022-12-08T05:03:31.404Z,3.3
2022-12-08T05:13:32.214Z,3.3
2022-12-08T05:23:32.483Z,3.3
2022-12-08T05:33:32.704Z,3.1
2022-12-08T05:43:33.414Z,3.1
2022-12-08T05:53:34.252Z,3.2
2022-12-08T06:03:34.988Z,3.2
2022-12-08T06:13:35.319Z,3.3
2022-12-08T06:23:35.398Z,3.3
2022-12-08T06:43:35.937Z,3.2
2022-12-08T06:53:36.884Z,3.1
2022-12-08T07:03:37.235Z,3
2022-12-08T07:13:37.636Z,2.9
2022-12-08T07:23:38.172Z,3
2022-12-08T07:53:42.477Z,3.1
2022-12-08T08:03:40.557Z,3.2
2022-12-08T08:13:41.338Z,3.2
2022-12-08T08:23:41.539Z,3.2
2022-12-08T08:33:41.680Z,3.2
2022-12-08T08:43:42.624Z,3.1
2022-12-08T08:53:43.091Z,3.1
2022-12-08T09:03:43.379Z,3
2022-12-08T09:13:43.998Z,2.9
2022-12-08T09:33:45.671Z,2.9
2022-12-08T09:43:46.575Z,2.9
2022-12-08T09:53:46.705Z,2.9
2022-12-08T10:13:47.781Z,2.9
2022-12-08T10:23:47.977Z,2.9
2022-12-08T10:33:48.137Z,3
2022-12-08T10:43:48.355Z,3
2022-12-08T10:53:49.296Z,3
2022-12-08T11:03:49.663Z,2.9
2022-12-08T11:13:50.030Z,2.9
2022-12-08T11:33:51.091Z,2.5
2022-12-08T11:43:51.869Z,2.4
2022-12-08T11:53:52.123Z,2.5
2022-12-08T12:03:52.799Z,2.7
2022-12-08T12:13:53.786Z,2.8
2022-12-08T12:23:54.391Z,2.9
2022-12-08T12:33:55.089Z,2.8
2022-12-08T12:43:55.947Z,2.8
2022-12-08T13:03:57.410Z,2.7
2022-12-08T13:13:57.884Z,2.6
2022-12-08T13:33:59.648Z,2.6
2022-12-08T13:44:50.765Z,2.6
2022-12-08T14:04:34.010Z,2.8
2022-12-08T14:14:02.766Z,2.8
2022-12-08T14:24:03.267Z,2.8
2022-12-08T14:34:04.295Z,2.7
2022-12-08T14:44:05.282Z,2.7
2022-12-08T14:54:06.226Z,2.6
2022-12-08T15:04:06.528Z,2.4
2022-12-08T15:14:07.478Z,2.4
2022-12-08T15:24:08.406Z,2.4
2022-12-08T15:34:08.818Z,2.4
2022-12-08T15:44:09.173Z,2.4
2022-12-08T15:54:09.599Z,2.4
2022-12-08T16:04:37.169Z,2.5
2022-12-08T16:14:47.309Z,2.4
2022-12-08T16:24:10.864Z,2.4
2022-12-08T16:34:11.400Z,2.4
2022-12-08T16:34:16.699Z,2.4
2022-12-08T16:44:17.708Z,2.4
2022-12-08T16:54:18.044Z,2.4
2022-12-08T17:04:31.262Z,2.5
2022-12-08T17:14:19.491Z,2.5
2022-12-08T17:24:22.063Z,2.5
2022-12-08T17:34:19.984Z,2.6
2022-12-08T17:44:20.098Z,2.6
2022-12-08T17:54:20.423Z,2.5
2022-12-08T18:04:20.518Z,1.6
2022-12-08T18:14:20.635Z,1.3
2022-12-08T18:24:20.856Z,1.5
2022-12-08T18:34:21.827Z,1.6
2022-12-08T18:44:22.620Z,1.6
2022-12-08T18:54:37.001Z,1.8
2022-12-08T19:04:29.947Z,1.9
2022-12-08T19:14:27.688Z,2
2022-12-08T19:24:23.718Z,2.1
2022-12-08T19:34:23.900Z,2.2
2022-12-08T19:44:24.435Z,2.2
2022-12-08T19:54:24.840Z,2.2
2022-12-08T20:04:25.098Z,2.3
2022-12-08T20:14:25.309Z,2.3
2022-12-08T20:24:25.520Z,2.2
2022-12-08T20:34:26.509Z,2.2
2022-12-08T20:44:26.752Z,2.3
2022-12-08T20:54:27.769Z,2.3
2022-12-08T21:04:28.156Z,2.2
2022-12-08T21:14:28.223Z,2.2
2022-12-08T21:24:33.643Z,2
2022-12-08T21:34:29.642Z,2
2022-12-08T21:44:29.735Z,2
2022-12-08T22:04:30.208Z,2
2022-12-08T22:14:30.803Z,2
2022-12-08T22:34:31.829Z,2
2022-12-08T22:44:32.372Z,2
2022-12-08T22:54:33.078Z,2
2022-12-08T23:04:33.307Z,2
2022-12-08T23:14:33.336Z,1.8
2022-12-08T23:24:34.109Z,1.6
2022-12-08T23:34:34.910Z,1.5
2022-12-08T23:44:35.833Z,1.6
2022-12-08T23:54:36.618Z,1.7
